sensor_id;sensor_type;location;lat;lon;timestamp;pressure;altitude;pressure_sealevel;temperature;humidity
6942;BME280;3510;43.200;27.920;2023-11-21T00:02:33;100815.78;;;7.05;96.17
6942;BME280;3510;43.200;27.920;2023-11-21T00:05:01;100810.34;;;7.09;96.61
6942;BME280;3510;43.200;27.920;2023-11-21T00:07:28;100830.22;;;7.16;96.74
6942;BME280;3510;43.200;27.920;2023-11-21T00:09:55;100816.03;;;7.08;97.18
6942;BME280;3510;43.200;27.920;2023-11-21T00:12:22;100827.84;;;7.18;97.93
6942;BME280;3510;43.200;27.920;2023-11-21T00:14:50;100831.66;;;7.23;97.41
6942;BME280;3510;43.200;27.920;2023-11-21T00:17:16;100832.56;;;7.15;97.96
6942;BME280;3510;43.200;27.920;2023-11-21T00:19:43;100823.72;;;7.10;98.60
6942;BME280;3510;43.200;27.920;2023-11-21T00:22:11;100832.09;;;7.19;98.71
6942;BME280;3510;43.200;27.920;2023-11-21T00:24:38;100832.28;;;7.20;98.78
6942;BME280;3510;43.200;27.920;2023-11-21T00:27:05;100829.16;;;7.06;99.88
6942;BME280;3510;43.200;27.920;2023-11-21T00:29:32;100836.06;;;6.99;99.95
6942;BME280;3510;43.200;27.920;2023-11-21T00:31:59;100826.63;;;6.88;99.88
6942;BME280;3510;43.200;27.920;2023-11-21T00:34:25;100826.91;;;6.91;100.00
6942;BME280;3510;43.200;27.920;2023-11-21T00:36:52;100819.69;;;6.86;99.24
6942;BME280;3510;43.200;27.920;2023-11-21T00:39:20;100826.28;;;6.76;98.63
6942;BME280;3510;43.200;27.920;2023-11-21T00:41:46;100822.19;;;6.86;98.15
6942;BME280;3510;43.200;27.920;2023-11-21T00:44:13;100822.78;;;6.92;97.06
6942;BME280;3510;43.200;27.920;2023-11-21T00:46:41;100822.31;;;6.78;96.69
6942;BME280;3510;43.200;27.920;2023-11-21T00:49:08;100833.78;;;6.68;96.95
6942;BME280;3510;43.200;27.920;2023-11-21T00:51:34;100840.25;;;6.74;96.24
6942;BME280;3510;43.200;27.920;2023-11-21T00:54:02;100782.09;;;6.60;96.03
6942;BME280;3510;43.200;27.920;2023-11-21T00:56:30;100827.81;;;7.00;94.76
6942;BME280;3510;43.200;27.920;2023-11-21T00:58:57;100827.25;;;7.12;93.58
6942;BME280;3510;43.200;27.920;2023-11-21T01:01:23;100828.75;;;7.27;92.70
6942;BME280;3510;43.200;27.920;2023-11-21T01:03:50;100827.56;;;7.32;91.17
6942;BME280;3510;43.200;27.920;2023-11-21T01:06:17;100816.38;;;7.37;90.72
6942;BME280;3510;43.200;27.920;2023-11-21T01:08:45;100815.19;;;7.34;89.69
6942;BME280;3510;43.200;27.920;2023-11-21T01:11:12;100822.88;;;7.35;89.84
6942;BME280;3510;43.200;27.920;2023-11-21T01:13:40;100818.88;;;7.28;89.25
6942;BME280;3510;43.200;27.920;2023-11-21T01:16:08;100817.84;;;7.18;89.50
6942;BME280;3510;43.200;27.920;2023-11-21T01:18:35;100827.44;;;7.31;89.87
6942;BME280;3510;43.200;27.920;2023-11-21T01:21:02;100826.69;;;7.32;89.37
6942;BME280;3510;43.200;27.920;2023-11-21T01:23:29;100822.25;;;7.38;88.74
6942;BME280;3510;43.200;27.920;2023-11-21T01:25:56;100826.09;;;7.25;89.29
6942;BME280;3510;43.200;27.920;2023-11-21T01:28:23;100822.25;;;7.29;89.43
6942;BME280;3510;43.200;27.920;2023-11-21T01:30:51;100834.34;;;7.24;90.12
6942;BME280;3510;43.200;27.920;2023-11-21T01:33:18;100800.63;;;7.12;89.56
6942;BME280;3510;43.200;27.920;2023-11-21T01:35:45;100816.09;;;7.34;89.59
6942;BME280;3510;43.200;27.920;2023-11-21T01:38:12;100823.44;;;7.41;89.13
6942;BME280;3510;43.200;27.920;2023-11-21T01:40:39;100815.50;;;7.28;90.10
6942;BME280;3510;43.200;27.920;2023-11-21T01:43:06;100812.84;;;7.26;89.60
6942;BME280;3510;43.200;27.920;2023-11-21T01:45:34;100820.78;;;7.22;89.51
6942;BME280;3510;43.200;27.920;2023-11-21T01:48:02;100814.75;;;7.20;88.75
6942;BME280;3510;43.200;27.920;2023-11-21T01:50:29;100817.69;;;7.25;89.02
6942;BME280;3510;43.200;27.920;2023-11-21T01:52:56;100817.41;;;7.22;89.17
6942;BME280;3510;43.200;27.920;2023-11-21T01:55:23;100794.28;;;7.07;89.47
6942;BME280;3510;43.200;27.920;2023-11-21T01:57:50;100807.25;;;7.29;89.82
6942;BME280;3510;43.200;27.920;2023-11-21T02:00:17;100782.38;;;7.31;89.34
6942;BME280;3510;43.200;27.920;2023-11-21T02:02:45;100801.06;;;7.51;89.03
6942;BME280;3510;43.200;27.920;2023-11-21T02:05:16;100789.56;;;7.62;88.32
6942;BME280;3510;43.200;27.920;2023-11-21T02:07:44;100802.22;;;7.81;87.89
6942;BME280;3510;43.200;27.920;2023-11-21T02:10:13;100799.59;;;7.80;87.32
6942;BME280;3510;43.200;27.920;2023-11-21T02:12:40;100789.56;;;7.71;87.32
6942;BME280;3510;43.200;27.920;2023-11-21T02:15:08;100786.22;;;7.53;87.45
6942;BME280;3510;43.200;27.920;2023-11-21T02:17:40;100797.41;;;7.57;87.80
6942;BME280;3510;43.200;27.920;2023-11-21T02:20:09;100797.81;;;7.52;88.05
6942;BME280;3510;43.200;27.920;2023-11-21T02:22:42;100790.03;;;7.49;87.88
6942;BME280;3510;43.200;27.920;2023-11-21T02:25:10;100800.94;;;7.50;88.05
6942;BME280;3510;43.200;27.920;2023-11-21T02:27:37;100801.22;;;7.44;88.38
6942;BME280;3510;43.200;27.920;2023-11-21T02:30:06;100814.00;;;7.30;88.85
6942;BME280;3510;43.200;27.920;2023-11-21T02:32:37;100804.59;;;7.19;90.23
6942;BME280;3510;43.200;27.920;2023-11-21T02:35:05;100814.59;;;7.19;90.58
6942;BME280;3510;43.200;27.920;2023-11-21T02:37:33;100813.41;;;7.07;91.47
6942;BME280;3510;43.200;27.920;2023-11-21T02:40:00;100812.78;;;6.92;91.81
6942;BME280;3510;43.200;27.920;2023-11-21T02:42:30;100815.44;;;6.93;91.32
6942;BME280;3510;43.200;27.920;2023-11-21T02:44:57;100821.03;;;6.91;91.54
6942;BME280;3510;43.200;27.920;2023-11-21T02:47:23;100819.28;;;6.98;91.55
6942;BME280;3510;43.200;27.920;2023-11-21T02:49:50;100829.59;;;7.01;91.64
6942;BME280;3510;43.200;27.920;2023-11-21T02:52:17;100829.16;;;7.06;91.63
6942;BME280;3510;43.200;27.920;2023-11-21T02:54:44;100810.59;;;7.03;90.94
6942;BME280;3510;43.200;27.920;2023-11-21T02:57:11;100819.28;;;7.07;91.24
6942;BME280;3510;43.200;27.920;2023-11-21T02:59:39;100764.97;;;6.89;90.79
6942;BME280;3510;43.200;27.920;2023-11-21T03:02:05;100826.81;;;7.33;90.93
6942;BME280;3510;43.200;27.920;2023-11-21T03:04:34;100830.38;;;7.52;90.17
6942;BME280;3510;43.200;27.920;2023-11-21T03:07:01;100826.69;;;7.75;89.56
6942;BME280;3510;43.200;27.920;2023-11-21T03:09:27;100827.28;;;7.90;88.49
6942;BME280;3510;43.200;27.920;2023-11-21T03:11:54;100839.03;;;7.82;87.03
6942;BME280;3510;43.200;27.920;2023-11-21T03:14:20;100829.63;;;7.80;87.66
6942;BME280;3510;43.200;27.920;2023-11-21T03:16:49;100820.19;;;7.77;87.49
6942;BME280;3510;43.200;27.920;2023-11-21T03:19:16;100845.84;;;7.83;86.98
6942;BME280;3510;43.200;27.920;2023-11-21T03:21:42;100839.03;;;7.82;87.41
6942;BME280;3510;43.200;27.920;2023-11-21T03:24:09;100845.84;;;7.83;87.54
6942;BME280;3510;43.200;27.920;2023-11-21T03:26:35;100840.53;;;7.80;86.76
6942;BME280;3510;43.200;27.920;2023-11-21T03:29:03;100853.50;;;7.85;86.98
6942;BME280;3510;43.200;27.920;2023-11-21T03:31:30;100846.28;;;7.70;87.62
6942;BME280;3510;43.200;27.920;2023-11-21T03:33:58;100844.97;;;7.65;88.43
6942;BME280;3510;43.200;27.920;2023-11-21T03:36:25;100847.16;;;7.62;88.48
6942;BME280;3510;43.200;27.920;2023-11-21T03:38:52;100834.50;;;7.61;88.67
6942;BME280;3510;43.200;27.920;2023-11-21T03:41:19;100832.88;;;7.70;88.64
6942;BME280;3510;43.200;27.920;2023-11-21T03:43:45;100837.00;;;7.78;88.21
6942;BME280;3510;43.200;27.920;2023-11-21T03:46:12;100826.25;;;7.70;87.80
6942;BME280;3510;43.200;27.920;2023-11-21T03:48:38;100829.78;;;7.64;88.65
6942;BME280;3510;43.200;27.920;2023-11-21T03:51:06;100829.50;;;7.61;89.02
6942;BME280;3510;43.200;27.920;2023-11-21T03:53:33;100803.00;;;7.19;90.73
6942;BME280;3510;43.200;27.920;2023-11-21T03:56:02;100827.41;;;7.22;91.75
6942;BME280;3510;43.200;27.920;2023-11-21T03:58:28;100836.38;;;7.11;93.21
6942;BME280;3510;43.200;27.920;2023-11-21T04:00:55;100838.72;;;7.10;94.35
6942;BME280;3510;43.200;27.920;2023-11-21T04:03:22;100839.00;;;6.95;95.41
6942;BME280;3510;43.200;27.920;2023-11-21T04:05:48;100844.44;;;6.91;96.76
6942;BME280;3510;43.200;27.920;2023-11-21T04:08:16;100843.34;;;6.72;97.83
6942;BME280;3510;43.200;27.920;2023-11-21T04:10:43;100843.38;;;6.81;98.47
6942;BME280;3510;43.200;27.920;2023-11-21T04:13:10;100831.56;;;6.71;98.89
6942;BME280;3510;43.200;27.920;2023-11-21T04:15:36;100819.34;;;6.74;99.86
6942;BME280;3510;43.200;27.920;2023-11-21T04:18:05;100819.47;;;6.67;100.00
6942;BME280;3510;43.200;27.920;2023-11-21T04:20:32;100831.91;;;6.83;100.00
6942;BME280;3510;43.200;27.920;2023-11-21T04:22:58;100829.53;;;6.84;99.84
6942;BME280;3510;43.200;27.920;2023-11-21T04:25:26;100834.28;;;6.98;100.00
6942;BME280;3510;43.200;27.920;2023-11-21T04:27:53;100837.38;;;6.96;100.00
6942;BME280;3510;43.200;27.920;2023-11-21T04:30:20;100848.38;;;6.89;100.00
6942;BME280;3510;43.200;27.920;2023-11-21T04:32:47;100851.50;;;6.95;100.00
6942;BME280;3510;43.200;27.920;2023-11-21T04:35:14;100842.53;;;6.97;100.00
6942;BME280;3510;43.200;27.920;2023-11-21T04:37:41;100838.97;;;6.87;100.00
6942;BME280;3510;43.200;27.920;2023-11-21T04:40:08;100849.28;;;6.90;100.00
6942;BME280;3510;43.200;27.920;2023-11-21T04:42:36;100831.63;;;6.88;100.00
6942;BME280;3510;43.200;27.920;2023-11-21T04:45:04;100846.50;;;7.04;100.00
6942;BME280;3510;43.200;27.920;2023-11-21T04:47:34;100841.19;;;6.92;99.97
6942;BME280;3510;43.200;27.920;2023-11-21T04:50:00;100848.88;;;7.02;99.62
6942;BME280;3510;43.200;27.920;2023-11-21T04:52:27;100850.94;;;7.07;99.66
6942;BME280;3510;43.200;27.920;2023-11-21T04:54:53;100836.94;;;6.91;98.40
6942;BME280;3510;43.200;27.920;2023-11-21T04:57:21;100833.38;;;6.89;98.31
6942;BME280;3510;43.200;27.920;2023-11-21T04:59:49;100836.78;;;6.90;97.84
6942;BME280;3510;43.200;27.920;2023-11-21T05:02:16;100849.88;;;6.87;97.87
6942;BME280;3510;43.200;27.920;2023-11-21T05:04:44;100846.91;;;6.83;97.52
6942;BME280;3510;43.200;27.920;2023-11-21T05:07:11;100850.28;;;6.83;97.76
6942;BME280;3510;43.200;27.920;2023-11-21T05:09:41;100854.09;;;6.79;97.33
6942;BME280;3510;43.200;27.920;2023-11-21T05:12:11;100847.19;;;6.77;98.12
6942;BME280;3510;43.200;27.920;2023-11-21T05:14:39;100843.34;;;6.72;97.19
6942;BME280;3510;43.200;27.920;2023-11-21T05:17:08;100848.66;;;6.75;97.59
6942;BME280;3510;43.200;27.920;2023-11-21T05:19:34;100833.00;;;6.60;96.95
6942;BME280;3510;43.200;27.920;2023-11-21T05:22:02;100822.53;;;6.55;96.88
6942;BME280;3510;43.200;27.920;2023-11-21T05:24:28;100818.56;;;6.49;96.65
6942;BME280;3510;43.200;27.920;2023-11-21T05:26:55;100850.22;;;6.66;96.98
6942;BME280;3510;43.200;27.920;2023-11-21T05:29:23;100849.00;;;6.53;96.53
6942;BME280;3510;43.200;27.920;2023-11-21T05:31:51;100846.50;;;6.53;97.04
6942;BME280;3510;43.200;27.920;2023-11-21T05:34:19;100856.56;;;6.71;96.83
6942;BME280;3510;43.200;27.920;2023-11-21T05:36:49;100856.00;;;6.73;96.90
6942;BME280;3510;43.200;27.920;2023-11-21T05:39:16;100802.69;;;6.57;96.71
6942;BME280;3510;43.200;27.920;2023-11-21T05:41:44;100842.81;;;6.92;96.12
6942;BME280;3510;43.200;27.920;2023-11-21T05:44:11;100841.78;;;6.90;95.98
6942;BME280;3510;43.200;27.920;2023-11-21T05:46:39;100858.00;;;7.11;95.29
6942;BME280;3510;43.200;27.920;2023-11-21T05:49:08;100865.81;;;7.14;94.80
6942;BME280;3510;43.200;27.920;2023-11-21T05:51:36;100861.56;;;7.21;95.04
6942;BME280;3510;43.200;27.920;2023-11-21T05:54:03;100849.75;;;6.94;96.37
6942;BME280;3510;43.200;27.920;2023-11-21T05:56:30;100876.56;;;7.13;96.12
6942;BME280;3510;43.200;27.920;2023-11-21T05:58:57;100878.28;;;6.96;98.05
6942;BME280;3510;43.200;27.920;2023-11-21T06:01:24;100871.19;;;6.84;99.60
6942;BME280;3510;43.200;27.920;2023-11-21T06:03:53;100873.88;;;6.94;99.52
6942;BME280;3510;43.200;27.920;2023-11-21T06:06:20;100868.69;;;6.92;100.00
6942;BME280;3510;43.200;27.920;2023-11-21T06:08:49;100885.53;;;7.11;100.00
6942;BME280;3510;43.200;27.920;2023-11-21T06:11:16;100888.66;;;7.17;100.00
6942;BME280;3510;43.200;27.920;2023-11-21T06:13:44;100879.97;;;7.13;100.00
6942;BME280;3510;43.200;27.920;2023-11-21T06:16:10;100902.34;;;7.20;99.87
6942;BME280;3510;43.200;27.920;2023-11-21T06:18:40;100898.22;;;7.30;99.53
6942;BME280;3510;43.200;27.920;2023-11-21T06:21:09;100879.66;;;7.19;99.73
6942;BME280;3510;43.200;27.920;2023-11-21T06:23:36;100915.19;;;7.32;99.11
6942;BME280;3510;43.200;27.920;2023-11-21T06:26:04;100898.84;;;7.36;98.80
6942;BME280;3510;43.200;27.920;2023-11-21T06:28:31;100911.22;;;7.43;98.25
6942;BME280;3510;43.200;27.920;2023-11-21T06:30:59;100907.97;;;7.52;97.58
6942;BME280;3510;43.200;27.920;2023-11-21T06:33:30;100911.25;;;7.60;97.14
6942;BME280;3510;43.200;27.920;2023-11-21T06:35:57;100901.38;;;7.70;97.00
6942;BME280;3510;43.200;27.920;2023-11-21T06:38:23;100908.31;;;7.73;95.61
6942;BME280;3510;43.200;27.920;2023-11-21T06:40:50;100897.41;;;7.72;95.51
6942;BME280;3510;43.200;27.920;2023-11-21T06:43:18;100890.03;;;7.65;94.42
6942;BME280;3510;43.200;27.920;2023-11-21T06:45:47;100898.91;;;7.79;94.69
6942;BME280;3510;43.200;27.920;2023-11-21T06:48:14;100875.28;;;7.60;94.11
6942;BME280;3510;43.200;27.920;2023-11-21T06:50:41;100866.31;;;7.62;93.57
6942;BME280;3510;43.200;27.920;2023-11-21T06:53:08;100893.75;;;7.86;92.97
6942;BME280;3510;43.200;27.920;2023-11-21T06:55:35;100898.31;;;7.90;92.63
6942;BME280;3510;43.200;27.920;2023-11-21T06:58:02;100893.28;;;7.99;92.25
6942;BME280;3510;43.200;27.920;2023-11-21T07:00:29;100879.66;;;8.23;91.02
6942;BME280;3510;43.200;27.920;2023-11-21T07:02:56;100889.28;;;8.27;90.97
6942;BME280;3510;43.200;27.920;2023-11-21T07:05:23;100887.94;;;8.39;89.63
6942;BME280;3510;43.200;27.920;2023-11-21T07:07:49;100872.88;;;8.39;89.19
6942;BME280;3510;43.200;27.920;2023-11-21T07:10:19;100890.66;;;8.68;88.05
6942;BME280;3510;43.200;27.920;2023-11-21T07:12:46;100845.97;;;8.56;87.32
6942;BME280;3510;43.200;27.920;2023-11-21T07:15:13;100876.53;;;8.88;86.75
6942;BME280;3510;43.200;27.920;2023-11-21T07:17:41;100881.31;;;9.04;86.01
6942;BME280;3510;43.200;27.920;2023-11-21T07:20:10;100877.78;;;9.29;85.70
6942;BME280;3510;43.200;27.920;2023-11-21T07:22:37;100868.44;;;9.56;84.28
6942;BME280;3510;43.200;27.920;2023-11-21T07:25:04;100859.94;;;9.64;83.30
6942;BME280;3510;43.200;27.920;2023-11-21T07:27:32;100858.25;;;9.73;82.90
6942;BME280;3510;43.200;27.920;2023-11-21T07:30:01;100887.44;;;9.81;82.35
6942;BME280;3510;43.200;27.920;2023-11-21T07:32:30;100867.13;;;9.88;82.51
6942;BME280;3510;43.200;27.920;2023-11-21T07:34:58;100880.06;;;10.12;81.38
6942;BME280;3510;43.200;27.920;2023-11-21T07:37:27;100893.06;;;10.35;79.91
6942;BME280;3510;43.200;27.920;2023-11-21T07:39:54;100882.81;;;10.63;79.42
6942;BME280;3510;43.200;27.920;2023-11-21T07:42:21;100883.88;;;10.85;77.95
6942;BME280;3510;43.200;27.920;2023-11-21T07:44:48;100879.22;;;10.90;77.56
6942;BME280;3510;43.200;27.920;2023-11-21T07:47:15;100886.16;;;10.93;77.29
6942;BME280;3510;43.200;27.920;2023-11-21T07:49:42;100888.94;;;11.06;76.46
6942;BME280;3510;43.200;27.920;2023-11-21T07:52:15;100897.00;;;11.12;77.07
6942;BME280;3510;43.200;27.920;2023-11-21T07:54:42;100897.25;;;11.15;76.48
6942;BME280;3510;43.200;27.920;2023-11-21T07:57:09;100863.75;;;10.96;76.71
6942;BME280;3510;43.200;27.920;2023-11-21T07:59:38;100896.75;;;11.19;76.12
6942;BME280;3510;43.200;27.920;2023-11-21T08:02:06;100903.53;;;11.30;75.40
6942;BME280;3510;43.200;27.920;2023-11-21T08:04:32;100891.59;;;11.48;74.55
6942;BME280;3510;43.200;27.920;2023-11-21T08:06:59;100883.50;;;11.62;73.37
6942;BME280;3510;43.200;27.920;2023-11-21T08:09:28;100894.47;;;11.83;73.14
6942;BME280;3510;43.200;27.920;2023-11-21T08:11:54;100895.78;;;12.10;72.50
6942;BME280;3510;43.200;27.920;2023-11-21T08:14:21;100891.66;;;12.33;72.02
6942;BME280;3510;43.200;27.920;2023-11-21T08:16:50;100888.75;;;12.39;71.16
6942;BME280;3510;43.200;27.920;2023-11-21T08:19:17;100870.50;;;12.53;70.51
6942;BME280;3510;43.200;27.920;2023-11-21T08:21:44;100881.69;;;12.78;70.09
6942;BME280;3510;43.200;27.920;2023-11-21T08:24:11;100881.88;;;12.92;68.53
6942;BME280;3510;43.200;27.920;2023-11-21T08:26:39;100891.94;;;13.02;68.23
6942;BME280;3510;43.200;27.920;2023-11-21T08:29:05;100880.72;;;12.98;67.99
6942;BME280;3510;43.200;27.920;2023-11-21T08:31:33;100894.16;;;13.09;67.50
6942;BME280;3510;43.200;27.920;2023-11-21T08:34:00;100893.47;;;13.12;67.98
6942;BME280;3510;43.200;27.920;2023-11-21T08:36:28;100896.22;;;13.03;68.38
6942;BME280;3510;43.200;27.920;2023-11-21T08:38:57;100885.56;;;13.07;68.08
6942;BME280;3510;43.200;27.920;2023-11-21T08:41:35;100884.44;;;13.03;67.85
6942;BME280;3510;43.200;27.920;2023-11-21T08:44:03;100882.13;;;12.73;68.79
6942;BME280;3510;43.200;27.920;2023-11-21T08:46:32;100870.19;;;12.60;69.01
6942;BME280;3510;43.200;27.920;2023-11-21T08:49:00;100872.38;;;12.77;68.89
6942;BME280;3510;43.200;27.920;2023-11-21T08:51:27;100886.59;;;12.87;68.33
6942;BME280;3510;43.200;27.920;2023-11-21T08:53:54;100887.50;;;12.99;67.89
6942;BME280;3510;43.200;27.920;2023-11-21T08:56:24;100876.09;;;13.04;67.77
6942;BME280;3510;43.200;27.920;2023-11-21T08:58:51;100869.38;;;13.27;67.38
6942;BME280;3510;43.200;27.920;2023-11-21T09:01:19;100878.16;;;13.20;66.80
6942;BME280;3510;43.200;27.920;2023-11-21T09:03:46;100882.28;;;13.20;66.77
6942;BME280;3510;43.200;27.920;2023-11-21T09:06:13;100868.41;;;13.25;67.47
6942;BME280;3510;43.200;27.920;2023-11-21T09:08:40;100866.56;;;13.46;67.14
6942;BME280;3510;43.200;27.920;2023-11-21T09:11:07;100861.25;;;13.31;67.48
6942;BME280;3510;43.200;27.920;2023-11-21T09:13:34;100862.41;;;13.82;66.27
6942;BME280;3510;43.200;27.920;2023-11-21T09:16:01;100853.63;;;14.00;65.30
6942;BME280;3510;43.200;27.920;2023-11-21T09:18:29;100847.75;;;14.24;64.63
6942;BME280;3510;43.200;27.920;2023-11-21T09:20:57;100849.59;;;14.27;64.60
6942;BME280;3510;43.200;27.920;2023-11-21T09:23:24;100843.34;;;14.22;63.51
6942;BME280;3510;43.200;27.920;2023-11-21T09:25:50;100837.91;;;14.52;62.94
6942;BME280;3510;43.200;27.920;2023-11-21T09:28:19;100814.56;;;14.45;62.47
6942;BME280;3510;43.200;27.920;2023-11-21T09:30:46;100838.63;;;14.63;60.92
6942;BME280;3510;43.200;27.920;2023-11-21T09:33:14;100824.53;;;14.67;58.86
6942;BME280;3510;43.200;27.920;2023-11-21T09:35:42;100827.69;;;14.76;57.76
6942;BME280;3510;43.200;27.920;2023-11-21T09:38:09;100812.28;;;14.73;55.56
6942;BME280;3510;43.200;27.920;2023-11-21T09:40:37;100827.38;;;14.71;54.98
6942;BME280;3510;43.200;27.920;2023-11-21T09:43:06;100809.47;;;14.68;54.38
6942;BME280;3510;43.200;27.920;2023-11-21T09:45:45;100812.91;;;14.82;54.11
6942;BME280;3510;43.200;27.920;2023-11-21T09:48:13;100822.72;;;14.77;53.89
6942;BME280;3510;43.200;27.920;2023-11-21T09:50:43;100793.84;;;14.62;54.11
6942;BME280;3510;43.200;27.920;2023-11-21T09:53:13;100820.44;;;14.94;53.50
6942;BME280;3510;43.200;27.920;2023-11-21T09:55:45;100809.72;;;14.98;53.62
6942;BME280;3510;43.200;27.920;2023-11-21T09:58:12;100799.41;;;15.08;52.56
6942;BME280;3510;43.200;27.920;2023-11-21T10:00:40;100809.19;;;15.15;52.25
6942;BME280;3510;43.200;27.920;2023-11-21T10:03:08;100799.03;;;15.02;52.57
6942;BME280;3510;43.200;27.920;2023-11-21T10:05:35;100802.56;;;15.17;52.60
6942;BME280;3510;43.200;27.920;2023-11-21T10:08:07;100802.25;;;15.13;53.07
6942;BME280;3510;43.200;27.920;2023-11-21T10:10:35;100799.34;;;15.20;53.01
6942;BME280;3510;43.200;27.920;2023-11-21T10:13:03;100796.91;;;15.21;53.79
6942;BME280;3510;43.200;27.920;2023-11-21T10:15:33;100799.06;;;15.29;54.39
6942;BME280;3510;43.200;27.920;2023-11-21T10:18:02;100801.00;;;15.19;54.64
6942;BME280;3510;43.200;27.920;2023-11-21T10:20:30;100797.69;;;15.34;54.44
6942;BME280;3510;43.200;27.920;2023-11-21T10:22:59;100796.91;;;15.35;54.06
6942;BME280;3510;43.200;27.920;2023-11-21T10:25:28;100791.66;;;15.45;53.23
6942;BME280;3510;43.200;27.920;2023-11-21T10:27:57;100788.44;;;15.47;54.12
6942;BME280;3510;43.200;27.920;2023-11-21T10:30:32;100796.53;;;15.42;53.61
6942;BME280;3510;43.200;27.920;2023-11-21T10:33:02;100760.91;;;15.27;54.14
6942;BME280;3510;43.200;27.920;2023-11-21T10:35:39;100795.50;;;15.78;53.78
6942;BME280;3510;43.200;27.920;2023-11-21T10:38:06;100794.78;;;15.94;53.32
6942;BME280;3510;43.200;27.920;2023-11-21T10:40:38;100792.97;;;16.19;52.08
6942;BME280;3510;43.200;27.920;2023-11-21T10:43:07;100786.00;;;16.30;52.32
6942;BME280;3510;43.200;27.920;2023-11-21T10:45:36;100784.13;;;16.41;50.86
6942;BME280;3510;43.200;27.920;2023-11-21T10:48:05;100779.53;;;16.63;50.43
6942;BME280;3510;43.200;27.920;2023-11-21T10:50:34;100772.25;;;16.55;50.05
6942;BME280;3510;43.200;27.920;2023-11-21T10:53:02;100770.88;;;16.32;49.98
6942;BME280;3510;43.200;27.920;2023-11-21T10:55:30;100765.66;;;16.43;49.69
6942;BME280;3510;43.200;27.920;2023-11-21T10:58:00;100768.47;;;16.48;49.67
6942;BME280;3510;43.200;27.920;2023-11-21T11:00:29;100762.72;;;16.65;50.50
6942;BME280;3510;43.200;27.920;2023-11-21T11:02:56;100765.78;;;17.03;49.62
6942;BME280;3510;43.200;27.920;2023-11-21T11:05:25;100760.56;;;16.86;48.99
6942;BME280;3510;43.200;27.920;2023-11-21T11:07:58;100759.72;;;17.15;48.04
6942;BME280;3510;43.200;27.920;2023-11-21T11:10:27;100764.47;;;17.09;48.82
6942;BME280;3510;43.200;27.920;2023-11-21T11:12:55;100765.66;;;17.16;48.28
6942;BME280;3510;43.200;27.920;2023-11-21T11:15:24;100743.84;;;16.90;48.75
6942;BME280;3510;43.200;27.920;2023-11-21T11:17:52;100750.41;;;17.01;48.33
6942;BME280;3510;43.200;27.920;2023-11-21T11:20:23;100750.13;;;17.26;48.37
6942;BME280;3510;43.200;27.920;2023-11-21T11:22:59;100749.16;;;17.39;47.71
6942;BME280;3510;43.200;27.920;2023-11-21T11:25:41;100739.22;;;17.58;47.45
6942;BME280;3510;43.200;27.920;2023-11-21T11:28:15;100730.28;;;17.50;46.07
6942;BME280;3510;43.200;27.920;2023-11-21T11:30:56;100736.22;;;17.65;48.48
6942;BME280;3510;43.200;27.920;2023-11-21T11:33:35;100735.53;;;16.92;52.10
6942;BME280;3510;43.200;27.920;2023-11-21T11:36:06;100730.81;;;16.70;53.67
6942;BME280;3510;43.200;27.920;2023-11-21T11:38:37;100734.34;;;16.73;54.63
6942;BME280;3510;43.200;27.920;2023-11-21T11:41:06;100734.66;;;16.64;55.80
6942;BME280;3510;43.200;27.920;2023-11-21T11:43:34;100734.34;;;16.30;57.56
6942;BME280;3510;43.200;27.920;2023-11-21T11:46:11;100727.63;;;16.02;58.90
6942;BME280;3510;43.200;27.920;2023-11-21T11:48:40;100728.69;;;16.06;60.14
6942;BME280;3510;43.200;27.920;2023-11-21T11:51:12;100736.66;;;15.17;63.65
6942;BME280;3510;43.200;27.920;2023-11-21T11:53:41;100734.00;;;15.03;65.98
6942;BME280;3510;43.200;27.920;2023-11-21T11:56:23;100730.28;;;14.97;66.85
6942;BME280;3510;43.200;27.920;2023-11-21T11:58:51;100728.78;;;14.61;67.93
6942;BME280;3510;43.200;27.920;2023-11-21T12:01:21;100723.75;;;14.49;68.29
6942;BME280;3510;43.200;27.920;2023-11-21T12:06:42;100723.09;;;14.15;69.78
6942;BME280;3510;43.200;27.920;2023-11-21T12:09:12;100707.06;;;14.03;68.61
6942;BME280;3510;43.200;27.920;2023-11-21T12:11:44;100727.06;;;14.12;67.36
6942;BME280;3510;43.200;27.920;2023-11-21T12:14:13;100726.41;;;14.39;65.53
6942;BME280;3510;43.200;27.920;2023-11-21T12:16:41;100736.16;;;14.58;64.83
6942;BME280;3510;43.200;27.920;2023-11-21T12:19:09;100723.63;;;14.48;63.94
6942;BME280;3510;43.200;27.920;2023-11-21T12:21:36;100733.75;;;14.48;63.99
6942;BME280;3510;43.200;27.920;2023-11-21T12:24:04;100725.59;;;14.52;64.15
6942;BME280;3510;43.200;27.920;2023-11-21T12:26:34;100736.38;;;14.61;63.64
6942;BME280;3510;43.200;27.920;2023-11-21T12:29:00;100705.16;;;14.37;63.96
6942;BME280;3510;43.200;27.920;2023-11-21T12:31:30;100724.56;;;14.37;64.16
6942;BME280;3510;43.200;27.920;2023-11-21T12:33:58;100719.38;;;14.10;62.84
6942;BME280;3510;43.200;27.920;2023-11-21T12:36:25;100717.97;;;14.27;63.47
6942;BME280;3510;43.200;27.920;2023-11-21T12:38:54;100716.44;;;14.29;63.62
6942;BME280;3510;43.200;27.920;2023-11-21T12:41:21;100726.09;;;14.35;63.96
6942;BME280;3510;43.200;27.920;2023-11-21T12:43:48;100707.91;;;14.15;63.67
6942;BME280;3510;43.200;27.920;2023-11-21T12:46:15;100717.50;;;14.08;64.33
6942;BME280;3510;43.200;27.920;2023-11-21T12:48:43;100716.84;;;14.10;65.22
6942;BME280;3510;43.200;27.920;2023-11-21T12:51:12;100716.97;;;14.37;65.50
6942;BME280;3510;43.200;27.920;2023-11-21T12:53:41;100704.09;;;14.34;64.91
6942;BME280;3510;43.200;27.920;2023-11-21T12:56:10;100700.47;;;14.30;64.03
6942;BME280;3510;43.200;27.920;2023-11-21T12:58:37;100689.69;;;14.33;63.67
6942;BME280;3510;43.200;27.920;2023-11-21T13:01:06;100719.22;;;14.70;63.31
6942;BME280;3510;43.200;27.920;2023-11-21T13:03:37;100708.38;;;14.60;63.08
6942;BME280;3510;43.200;27.920;2023-11-21T13:06:06;100713.75;;;14.64;62.63
6942;BME280;3510;43.200;27.920;2023-11-21T13:08:34;100709.75;;;14.55;63.17
6942;BME280;3510;43.200;27.920;2023-11-21T13:11:05;100721.56;;;14.67;62.83
6942;BME280;3510;43.200;27.920;2023-11-21T13:13:32;100712.38;;;14.56;63.13